Time;durP1;ratioP1;P1;durP2;ratioP2;P2;SDS_P1;SDS_P2;PMS_P1;PMS_P2;Temp;Humidity;BMP_temperature;BMP_pressure;BME280_temperature;BME280_humidity;BME280_pressure;Samples;Min_cycle;Max_cycle;Signal;HPM_P1;HPM_P2
2021/10/09 00:00:07;;;;;;;81.95;38.67;;;;;;;;;;5082565;28;20348;-84
2021/10/09 00:02:34;;;;;;;77.43;37.88;;;;;;;;;;5081276;28;20055;-84
2021/10/09 00:05:01;;;;;;;72.03;37.90;;;;;;;;;;5081402;28;20044;-84
2021/10/09 00:07:28;;;;;;;71.32;36.50;;;;;;;;;;5082035;28;20052;-84
2021/10/09 00:09:59;;;;;;;70.80;35.75;;;;;;;;;;5082172;28;20052;-84
2021/10/09 00:12:27;;;;;;;78.90;38.72;;;;;;;;;;5082434;28;20064;-84
2021/10/09 00:14:54;;;;;;;78.93;37.50;;;;;;;;;;5086498;28;20199;-84
2021/10/09 00:17:23;;;;;;;79.05;38.33;;;;;;;;;;5096925;28;20052;-83
2021/10/09 00:19:50;;;;;;;91.60;40.17;;;;;;;;;;5115913;28;20057;-84
2021/10/09 00:22:16;;;;;;;86.47;41.22;;;;;;;;;;5086323;28;20272;-84
2021/10/09 00:24:46;;;;;;;83.43;39.13;;;;;;;;;;5082865;28;20067;-84
2021/10/09 00:27:13;;;;;;;77.75;38.50;;;;;;;;;;5088947;28;20222;-84
2021/10/09 00:29:40;;;;;;;96.78;39.47;;;;;;;;;;5097065;28;20054;-84
2021/10/09 00:32:07;;;;;;;87.25;35.28;;;;;;;;;;5103023;28;20044;-84
2021/10/09 00:34:37;;;;;;;82.28;38.10;;;;;;;;;;5082258;28;20313;-85
2021/10/09 00:37:04;;;;;;;83.85;39.03;;;;;;;;;;5061313;28;20049;-84
2021/10/09 00:39:32;;;;;;;79.35;37.85;;;;;;;;;;5068966;28;20083;-84
2021/10/09 00:41:58;;;;;;;80.13;37.10;;;;;;;;;;5074411;28;20051;-84
2021/10/09 00:44:31;;;;;;;79.00;37.60;;;;;;;;;;5090389;28;20507;-84
2021/10/09 00:47:01;;;;;;;76.38;36.30;;;;;;;;;;5079684;28;20048;-84
2021/10/09 00:49:28;;;;;;;95.60;38.28;;;;;;;;;;5061814;28;20045;-84
2021/10/09 00:51:56;;;;;;;79.18;37.00;;;;;;;;;;5061359;28;20052;-84
2021/10/09 00:54:23;;;;;;;67.88;36.83;;;;;;;;;;5061249;28;20228;-84
2021/10/09 00:56:51;;;;;;;88.72;38.30;;;;;;;;;;5062269;28;20055;-83
2021/10/09 00:59:19;;;;;;;74.18;35.47;;;;;;;;;;5061840;28;20060;-84
2021/10/09 01:01:47;;;;;;;69.90;35.88;;;;;;;;;;5078783;28;20053;-83
2021/10/09 01:04:14;;;;;;;87.30;36.78;;;;;;;;;;5060496;28;20044;-83
2021/10/09 01:06:40;;;;;;;79.50;35.90;;;;;;;;;;5099487;28;20448;-84
2021/10/09 01:09:07;;;;;;;78.93;35.83;;;;;;;;;;5099911;28;20040;-84
2021/10/09 01:11:34;;;;;;;82.47;35.65;;;;;;;;;;5080555;28;20044;-84
2021/10/09 01:14:00;;;;;;;68.88;34.33;;;;;;;;;;5081573;28;20052;-85
2021/10/09 01:16:28;;;;;;;74.35;34.08;;;;;;;;;;5081889;28;20048;-84
2021/10/09 01:18:56;;;;;;;96.07;36.17;;;;;;;;;;5083154;28;20079;-84
2021/10/09 01:21:23;;;;;;;81.35;34.50;;;;;;;;;;5085131;28;20059;-84
2021/10/09 01:23:53;;;;;;;73.05;34.45;;;;;;;;;;5101198;28;20048;-84
2021/10/09 01:26:19;;;;;;;67.40;33.80;;;;;;;;;;5083832;28;20048;-84
2021/10/09 01:28:47;;;;;;;69.78;32.67;;;;;;;;;;5102339;28;20059;-85
2021/10/09 01:31:14;;;;;;;74.57;34.33;;;;;;;;;;5083642;28;20048;-85
2021/10/09 01:33:41;;;;;;;71.13;35.10;;;;;;;;;;5083944;28;20155;-85
2021/10/09 01:36:17;;;;;;;73.93;35.05;;;;;;;;;;5097231;28;20056;-84
2021/10/09 01:38:51;;;;;;;69.97;33.38;;;;;;;;;;5082415;28;20162;-84
2021/10/09 01:41:18;;;;;;;69.15;33.45;;;;;;;;;;5080576;28;20049;-84
2021/10/09 01:43:45;;;;;;;64.80;34.88;;;;;;;;;;5063012;28;20055;-84
2021/10/09 01:46:12;;;;;;;63.10;33.15;;;;;;;;;;5063273;28;20056;-84
2021/10/09 01:48:39;;;;;;;71.82;32.65;;;;;;;;;;5063411;28;20071;-84
2021/10/09 01:51:12;;;;;;;67.80;35.08;;;;;;;;;;5080200;28;20048;-84
2021/10/09 01:53:40;;;;;;;74.95;35.72;;;;;;;;;;5060620;28;20113;-84
2021/10/09 01:56:07;;;;;;;72.32;35.72;;;;;;;;;;5061494;28;20379;-84
2021/10/09 01:58:34;;;;;;;63.47;32.85;;;;;;;;;;5061474;28;20231;-84
2021/10/09 02:01:01;;;;;;;71.57;34.05;;;;;;;;;;5077914;28;20049;-84
2021/10/09 02:03:27;;;;;;;65.13;33.22;;;;;;;;;;5059854;28;20051;-84
2021/10/09 02:05:54;;;;;;;70.00;35.85;;;;;;;;;;5061423;28;20060;-84
2021/10/09 02:08:21;;;;;;;67.10;35.03;;;;;;;;;;5077152;28;20071;-84
2021/10/09 02:11:00;;;;;;;76.95;35.92;;;;;;;;;;5059010;28;20068;-84
2021/10/09 02:26:57;;;;;;;73.55;35.53;;;;;;;;;;5075153;28;20151;-84
2021/10/09 02:29:24;;;;;;;60.65;32.75;;;;;;;;;;5058558;28;20110;-84
2021/10/09 02:31:55;;;;;;;70.50;33.58;;;;;;;;;;5073728;28;20102;-84
2021/10/09 02:34:21;;;;;;;60.90;31.48;;;;;;;;;;5074948;28;20067;-84
2021/10/09 02:36:48;;;;;;;61.20;33.33;;;;;;;;;;5058583;28;20055;-84
2021/10/09 02:39:15;;;;;;;62.42;33.83;;;;;;;;;;5058654;28;20162;-84
2021/10/09 02:41:41;;;;;;;62.90;32.63;;;;;;;;;;5059603;28;20053;-84
2021/10/09 02:44:08;;;;;;;59.15;32.17;;;;;;;;;;5077933;28;20048;-84
2021/10/09 02:46:34;;;;;;;62.42;32.92;;;;;;;;;;5077372;28;20313;-84
2021/10/09 02:49:01;;;;;;;68.88;33.47;;;;;;;;;;5077263;28;20165;-84
2021/10/09 02:51:28;;;;;;;63.15;34.22;;;;;;;;;;5059549;28;20056;-84
2021/10/09 02:53:54;;;;;;;59.90;33.72;;;;;;;;;;5076910;28;20063;-84
2021/10/09 02:56:21;;;;;;;73.18;34.47;;;;;;;;;;5058799;28;20216;-84
2021/10/09 02:58:48;;;;;;;70.47;34.17;;;;;;;;;;5074557;28;20059;-84
2021/10/09 03:01:14;;;;;;;65.22;33.35;;;;;;;;;;5077526;28;20045;-84
2021/10/09 03:03:41;;;;;;;73.00;36.13;;;;;;;;;;5075429;28;20103;-84
2021/10/09 03:06:07;;;;;;;66.68;36.58;;;;;;;;;;5076595;28;20056;-84
2021/10/09 03:08:34;;;;;;;61.20;33.40;;;;;;;;;;5060492;28;20110;-84
2021/10/09 03:11:01;;;;;;;62.92;31.55;;;;;;;;;;5071907;28;20059;-83
2021/10/09 03:13:27;;;;;;;65.38;33.83;;;;;;;;;;5091000;28;20048;-83
2021/10/09 03:15:54;;;;;;;59.65;32.75;;;;;;;;;;5073010;28;20106;-83
2021/10/09 03:18:21;;;;;;;66.30;32.42;;;;;;;;;;5075386;28;20064;-83
2021/10/09 03:20:47;;;;;;;70.82;32.22;;;;;;;;;;5085845;28;20522;-84
2021/10/09 03:23:20;;;;;;;70.75;33.33;;;;;;;;;;5078649;28;20057;-84
2021/10/09 03:25:49;;;;;;;59.77;32.93;;;;;;;;;;5061243;28;20064;-84
2021/10/09 03:28:16;;;;;;;59.35;32.38;;;;;;;;;;5082017;28;20996;-83
2021/10/09 03:30:42;;;;;;;65.03;32.75;;;;;;;;;;5100979;28;20195;-83
2021/10/09 03:33:09;;;;;;;63.42;33.45;;;;;;;;;;5100168;28;20113;-84
2021/10/09 03:35:39;;;;;;;63.20;32.10;;;;;;;;;;5099166;28;20063;-83
2021/10/09 03:38:05;;;;;;;65.03;33.00;;;;;;;;;;5100974;28;20102;-83
2021/10/09 03:40:33;;;;;;;60.53;32.83;;;;;;;;;;5114706;28;20266;-82
2021/10/09 03:43:07;;;;;;;60.67;31.67;;;;;;;;;;5115964;28;20040;-84
2021/10/09 03:45:49;;;;;;;54.85;29.73;;;;;;;;;;5102231;28;20109;-83
2021/10/09 03:48:26;;;;;;;55.70;30.00;;;;;;;;;;5099751;28;20071;-83
2021/10/09 03:53:35;;;;;;;56.55;31.30;;;;;;;;;;5115618;28;20040;-82
2021/10/09 03:56:02;;;;;;;57.50;31.10;;;;;;;;;;5104908;28;20108;-83
2021/10/09 03:58:29;;;;;;;54.33;30.55;;;;;;;;;;5100088;28;20141;-83
2021/10/09 04:00:55;;;;;;;55.70;30.58;;;;;;;;;;5101082;28;20186;-83
2021/10/09 04:03:22;;;;;;;53.15;30.00;;;;;;;;;;5101518;28;20481;-83
2021/10/09 04:05:49;;;;;;;54.90;31.05;;;;;;;;;;5099724;28;20070;-82
2021/10/09 04:08:15;;;;;;;56.55;29.58;;;;;;;;;;5100451;28;20283;-83
2021/10/09 04:10:42;;;;;;;65.22;32.25;;;;;;;;;;5080543;28;20048;-82
2021/10/09 04:13:09;;;;;;;54.15;28.80;;;;;;;;;;5078685;28;20056;-83
2021/10/09 04:15:35;;;;;;;54.72;29.92;;;;;;;;;;5079382;28;20058;-82
2021/10/09 04:18:02;;;;;;;48.58;28.48;;;;;;;;;;5077824;28;20044;-84
2021/10/09 04:20:29;;;;;;;54.08;30.05;;;;;;;;;;5078739;28;20057;-83
2021/10/09 04:22:56;;;;;;;51.17;28.60;;;;;;;;;;5077133;28;20059;-83
2021/10/09 04:25:22;;;;;;;50.92;27.35;;;;;;;;;;5078547;28;20048;-83
2021/10/09 04:27:52;;;;;;;56.72;29.48;;;;;;;;;;5087923;28;20140;-83
2021/10/09 04:30:19;;;;;;;58.65;28.25;;;;;;;;;;5077349;28;20127;-83
2021/10/09 04:32:45;;;;;;;52.78;28.52;;;;;;;;;;5076905;28;20180;-83
2021/10/09 04:35:12;;;;;;;52.92;28.63;;;;;;;;;;5078971;28;20048;-83
2021/10/09 04:37:38;;;;;;;49.67;27.88;;;;;;;;;;5076832;28;20052;-83
2021/10/09 04:40:06;;;;;;;53.22;28.13;;;;;;;;;;5075511;28;20075;-83
2021/10/09 04:42:32;;;;;;;49.17;27.65;;;;;;;;;;5075754;28;20505;-83
2021/10/09 04:44:59;;;;;;;50.80;28.35;;;;;;;;;;5077338;28;20049;-83
2021/10/09 04:47:25;;;;;;;54.22;27.50;;;;;;;;;;5077438;28;20056;-83
2021/10/09 04:49:58;;;;;;;52.40;29.13;;;;;;;;;;5076651;28;20045;-83
2021/10/09 04:52:25;;;;;;;43.75;26.55;;;;;;;;;;5076599;28;20048;-83
2021/10/09 04:54:51;;;;;;;52.28;25.15;;;;;;;;;;5077621;28;20049;-83
2021/10/09 04:57:25;;;;;;;48.10;26.60;;;;;;;;;;5076495;28;20144;-83
2021/10/09 04:59:53;;;;;;;51.85;27.73;;;;;;;;;;5076249;28;20048;-83
2021/10/09 05:02:19;;;;;;;46.67;26.38;;;;;;;;;;5074096;28;20044;-83
2021/10/09 05:04:46;;;;;;;46.08;25.23;;;;;;;;;;5074884;28;20052;-84
2021/10/09 05:07:13;;;;;;;47.05;25.85;;;;;;;;;;5075913;28;20044;-83
2021/10/09 05:09:40;;;;;;;48.15;25.15;;;;;;;;;;5081625;28;20227;-84
2021/10/09 05:12:08;;;;;;;46.22;26.58;;;;;;;;;;5077355;28;20048;-83
2021/10/09 05:14:35;;;;;;;46.72;25.55;;;;;;;;;;5078858;28;20044;-83
2021/10/09 05:17:01;;;;;;;55.63;26.08;;;;;;;;;;5097730;28;20055;-84
2021/10/09 05:19:28;;;;;;;50.28;25.85;;;;;;;;;;5097887;28;20048;-83
2021/10/09 05:21:54;;;;;;;49.05;26.23;;;;;;;;;;5097712;28;20048;-84
2021/10/09 05:24:21;;;;;;;63.63;28.80;;;;;;;;;;5097430;28;20349;-84
2021/10/09 05:26:48;;;;;;;46.90;26.90;;;;;;;;;;5072918;28;20044;-83
2021/10/09 05:29:17;;;;;;;58.05;31.33;;;;;;;;;;5058800;28;20052;-84
2021/10/09 05:31:47;;;;;;;50.75;29.80;;;;;;;;;;5058548;28;20264;-84
2021/10/09 05:34:13;;;;;;;56.50;28.65;;;;;;;;;;5057826;28;20428;-84
2021/10/09 05:36:40;;;;;;;45.85;27.65;;;;;;;;;;5060444;28;20054;-83
2021/10/09 05:39:06;;;;;;;47.47;26.20;;;;;;;;;;5076429;28;20113;-83
2021/10/09 05:41:33;;;;;;;47.40;26.00;;;;;;;;;;5075095;28;20565;-83
2021/10/09 05:43:59;;;;;;;65.25;29.33;;;;;;;;;;5074582;28;20244;-83
2021/10/09 05:46:26;;;;;;;47.20;24.73;;;;;;;;;;5075054;28;20330;-83
2021/10/09 05:48:59;;;;;;;45.28;24.70;;;;;;;;;;5075047;28;20052;-83
2021/10/09 05:51:38;;;;;;;43.28;24.75;;;;;;;;;;5056662;28;20409;-83
2021/10/09 05:56:59;;;;;;;55.53;24.98;;;;;;;;;;5073004;28;20072;-83
2021/10/09 06:46:37;;;;;;;26.25;15.35;;;;;;;;;;5079982;28;20153;-85
2021/10/09 07:00:15;;;;;;;30.58;15.30;;;;;;;;;;5076577;28;20173;-85
2021/10/09 07:02:42;;;;;;;27.67;13.32;;;;;;;;;;5054291;28;20056;-84
2021/10/09 07:05:10;;;;;;;28.30;13.80;;;;;;;;;;5076783;28;20090;-85
2021/10/09 07:07:43;;;;;;;28.13;13.93;;;;;;;;;;5085450;28;20048;-85
2021/10/09 07:10:11;;;;;;;24.20;13.57;;;;;;;;;;5065089;28;20079;-84
2021/10/09 07:12:37;;;;;;;31.55;13.93;;;;;;;;;;5060938;28;20045;-84
2021/10/09 07:15:05;;;;;;;25.35;13.25;;;;;;;;;;5062125;28;20040;-83
2021/10/09 07:17:32;;;;;;;23.48;14.15;;;;;;;;;;5061358;28;20041;-83
2021/10/09 07:19:59;;;;;;;23.55;13.18;;;;;;;;;;5065061;28;20120;-84
2021/10/09 07:22:25;;;;;;;32.58;13.40;;;;;;;;;;5060102;28;20079;-85
2021/10/09 07:25:32;;;;;;;27.90;14.05;;;;;;;;;;5055400;28;20063;-84
2021/10/09 07:28:04;;;;;;;25.10;12.25;;;;;;;;;;5053752;28;20075;-84
2021/10/09 07:30:32;;;;;;;26.55;13.52;;;;;;;;;;5051893;28;20451;-84
2021/10/09 07:33:06;;;;;;;23.02;12.13;;;;;;;;;;5050463;28;20071;-85
2021/10/09 07:35:41;;;;;;;29.13;12.98;;;;;;;;;;5050632;28;20056;-84
2021/10/09 07:38:17;;;;;;;22.88;12.02;;;;;;;;;;5047072;28;20044;-84
2021/10/09 07:40:44;;;;;;;29.60;13.18;;;;;;;;;;5047027;28;20076;-84
2021/10/09 07:43:13;;;;;;;24.92;12.63;;;;;;;;;;5046971;28;20056;-84
2021/10/09 07:45:42;;;;;;;24.02;12.30;;;;;;;;;;5066795;28;20426;-85
2021/10/09 07:48:11;;;;;;;29.17;12.20;;;;;;;;;;5084214;28;20559;-85
2021/10/09 07:50:38;;;;;;;26.95;12.77;;;;;;;;;;5074870;28;20049;-85
2021/10/09 07:53:05;;;;;;;27.58;12.35;;;;;;;;;;5049026;28;20053;-85
2021/10/09 07:55:32;;;;;;;22.92;11.80;;;;;;;;;;5050103;28;20053;-84
2021/10/09 07:57:59;;;;;;;25.02;11.65;;;;;;;;;;5047195;28;20060;-84
2021/10/09 08:00:26;;;;;;;22.80;12.25;;;;;;;;;;5065032;28;20270;-84
2021/10/09 08:02:53;;;;;;;20.70;11.70;;;;;;;;;;5067304;28;20519;-85
2021/10/09 08:05:25;;;;;;;23.58;11.95;;;;;;;;;;5066437;28;20054;-84
2021/10/09 08:07:56;;;;;;;;;;;;;;;;;;5064480;28;20045;-85
2021/10/09 08:10:27;;;;;;;25.10;10.88;;;;;;;;;;5059832;28;20204;-84
2021/10/09 08:13:11;;;;;;;23.52;11.38;;;;;;;;;;5070074;28;20060;-84
2021/10/09 08:16:06;;;;;;;25.25;11.18;;;;;;;;;;5054675;28;20251;-85
2021/10/09 08:18:44;;;;;;;22.05;11.50;;;;;;;;;;5052618;28;20343;-84
2021/10/09 08:21:25;;;;;;;19.73;11.60;;;;;;;;;;5074791;28;20190;-84
2021/10/09 08:24:04;;;;;;;25.50;11.35;;;;;;;;;;5083191;28;20050;-84
2021/10/09 08:35:38;;;;;;;24.17;12.23;;;;;;;;;;5070611;28;20067;-85
2021/10/09 08:41:01;;;;;;;21.45;11.77;;;;;;;;;;5068755;28;20047;-85
2021/10/09 08:43:44;;;;;;;30.55;11.43;;;;;;;;;;5052020;28;20048;-85
2021/10/09 08:46:10;;;;;;;23.63;12.15;;;;;;;;;;5069074;28;20047;-85
2021/10/09 08:48:42;;;;;;;21.42;10.55;;;;;;;;;;5069747;28;20044;-85
2021/10/09 08:51:26;;;;;;;24.00;11.15;;;;;;;;;;5053198;28;20048;-85
2021/10/09 08:54:06;;;;;;;22.38;11.57;;;;;;;;;;5069807;28;20487;-85
2021/10/09 08:56:48;;;;;;;25.00;10.48;;;;;;;;;;5067004;28;20281;-85
2021/10/09 08:59:30;;;;;;;24.45;11.90;;;;;;;;;;5069846;28;20206;-85
2021/10/09 09:04:52;;;;;;;;;;;;;;;;;;5069009;28;20255;-85
2021/10/09 09:07:45;;;;;;;25.45;11.68;;;;;;;;;;5070929;28;19924;-86
2021/10/09 09:39:13;;;;;;;18.02;10.60;;;;;;;;;;5087761;28;20048;-86
2021/10/09 09:41:48;;;;;;;20.67;10.68;;;;;;;;;;5093912;28;20115;-85
2021/10/09 09:44:16;;;;;;;27.25;10.40;;;;;;;;;;5088657;28;20233;-85
2021/10/09 09:46:59;;;;;;;21.67;10.27;;;;;;;;;;5089517;28;20191;-85
2021/10/09 09:49:46;;;;;;;23.85;11.18;;;;;;;;;;5107936;28;20080;-85
2021/10/09 09:52:14;;;;;;;25.95;10.35;;;;;;;;;;5110530;28;20621;-85
2021/10/09 09:54:41;;;;;;;18.70;10.48;;;;;;;;;;5093508;28;20043;-85
2021/10/09 09:57:08;;;;;;;19.15;10.18;;;;;;;;;;5111375;28;20039;-85
2021/10/09 09:59:57;;;;;;;25.77;10.88;;;;;;;;;;5093646;28;20055;-85
2021/10/09 10:02:27;;;;;;;18.45;9.10;;;;;;;;;;5073062;28;20436;-85
2021/10/09 10:05:04;;;;;;;25.08;10.75;;;;;;;;;;5074493;28;20060;-85
2021/10/09 10:07:34;;;;;;;22.13;10.45;;;;;;;;;;5072888;28;20168;-85
2021/10/09 10:10:03;;;;;;;23.55;11.18;;;;;;;;;;5070766;28;20066;-85
2021/10/09 10:12:34;;;;;;;28.85;11.07;;;;;;;;;;5075627;28;20059;-85
2021/10/09 10:15:03;;;;;;;32.78;11.40;;;;;;;;;;5070421;28;20397;-85
2021/10/09 10:17:55;;;;;;;23.77;11.27;;;;;;;;;;5087182;28;20238;-85
2021/10/09 10:20:24;;;;;;;26.52;10.98;;;;;;;;;;5089593;28;20051;-86
2021/10/09 10:22:55;;;;;;;24.00;10.68;;;;;;;;;;5095005;28;20273;-86
2021/10/09 10:25:32;;;;;;;31.98;11.77;;;;;;;;;;5088675;28;20063;-86
2021/10/09 10:28:10;;;;;;;21.60;10.52;;;;;;;;;;5079361;28;20036;-86
2021/10/09 10:30:38;;;;;;;27.73;11.13;;;;;;;;;;5079152;28;20062;-86
2021/10/09 10:33:07;;;;;;;22.35;10.25;;;;;;;;;;5066489;28;20142;-86
2021/10/09 10:35:45;;;;;;;26.40;11.38;;;;;;;;;;5050939;28;20056;-86
2021/10/09 10:38:21;;;;;;;22.95;10.65;;;;;;;;;;5051996;28;20048;-86
2021/10/09 10:40:59;;;;;;;23.63;9.70;;;;;;;;;;5102052;28;20047;-86
2021/10/09 10:43:40;;;;;;;25.25;11.15;;;;;;;;;;5099858;28;20443;-86
2021/10/09 10:54:58;;;;;;;22.70;10.98;;;;;;;;;;5069930;28;20097;-86
2021/10/09 10:57:27;;;;;;;22.95;10.75;;;;;;;;;;5093656;28;20044;-86
2021/10/09 11:00:14;;;;;;;28.20;11.10;;;;;;;;;;5087522;28;20111;-86
2021/10/09 11:02:44;;;;;;;23.20;10.68;;;;;;;;;;5075177;28;20216;-86
2021/10/09 11:05:17;;;;;;;26.67;11.52;;;;;;;;;;5050984;28;20049;-87
2021/10/09 11:08:04;;;;;;;22.00;10.32;;;;;;;;;;5073420;28;20048;-87
2021/10/09 11:10:32;;;;;;;20.20;10.60;;;;;;;;;;5059223;28;20053;-87
2021/10/09 11:12:58;;;;;;;32.22;11.57;;;;;;;;;;5060488;28;20053;-87
2021/10/09 11:15:26;;;;;;;22.08;11.55;;;;;;;;;;5072091;28;20071;-87
2021/10/09 11:18:00;;;;;;;29.35;12.73;;;;;;;;;;5065598;28;20067;-87
2021/10/09 11:20:36;;;;;;;26.13;11.43;;;;;;;;;;5066098;28;20056;-87
2021/10/09 11:23:02;;;;;;;;;;;;;;;;;;5058906;28;20087;-87
2021/10/09 11:25:29;;;;;;;;;;;;;;;;;;5045629;28;19928;-86
2021/10/09 11:27:57;;;;;;;25.15;11.48;;;;;;;;;;5045295;28;19921;-86
2021/10/09 11:30:24;;;;;;;25.63;10.50;;;;;;;;;;5042945;28;20379;-86
2021/10/09 11:32:51;;;;;;;23.77;11.27;;;;;;;;;;5062080;28;20051;-87
2021/10/09 11:35:34;;;;;;;20.63;10.65;;;;;;;;;;5071074;28;20041;-87
2021/10/09 11:38:02;;;;;;;20.80;11.38;;;;;;;;;;5074208;28;20048;-86
2021/10/09 11:40:31;;;;;;;24.85;9.98;;;;;;;;;;5073261;28;20236;-86
2021/10/09 11:45:55;;;;;;;29.50;9.75;;;;;;;;;;5067322;28;20340;-86
2021/10/09 11:56:29;;;;;;;22.45;9.93;;;;;;;;;;5075049;28;20048;-85
2021/10/09 11:59:02;;;;;;;21.58;9.68;;;;;;;;;;5079193;28;20044;-85
2021/10/09 12:01:32;;;;;;;17.90;9.98;;;;;;;;;;5077992;28;20643;-86
2021/10/09 12:04:33;;;;;;;21.02;10.32;;;;;;;;;;5082237;28;20048;-86
2021/10/09 12:07:09;;;;;;;17.90;9.82;;;;;;;;;;5083611;28;20209;-86
2021/10/09 12:09:58;;;;;;;20.40;8.73;;;;;;;;;;5081551;28;20398;-87
2021/10/09 12:12:33;;;;;;;20.65;9.52;;;;;;;;;;5075215;28;20041;-86
2021/10/09 12:15:00;;;;;;;19.60;8.80;;;;;;;;;;5084771;28;20116;-86
2021/10/09 12:17:37;;;;;;;19.38;9.00;;;;;;;;;;5074603;28;20122;-86
2021/10/09 12:20:07;;;;;;;26.98;9.23;;;;;;;;;;5072261;28;20227;-87
2021/10/09 12:22:44;;;;;;;15.77;7.65;;;;;;;;;;5072135;28;20048;-86
2021/10/09 12:25:26;;;;;;;18.95;8.93;;;;;;;;;;5075084;28;20057;-86
2021/10/09 12:27:57;;;;;;;16.27;8.23;;;;;;;;;;5077900;28;20044;-86
2021/10/09 12:30:34;;;;;;;17.63;7.95;;;;;;;;;;5073217;28;20040;-86
2021/10/09 12:33:04;;;;;;;15.10;7.20;;;;;;;;;;5073606;28;20052;-86
2021/10/09 12:35:34;;;;;;;17.88;8.52;;;;;;;;;;5074152;28;20139;-86
2021/10/09 12:38:03;;;;;;;16.73;7.63;;;;;;;;;;5074256;28;20036;-87
2021/10/09 12:40:49;;;;;;;18.20;7.75;;;;;;;;;;5072423;28;20094;-87
2021/10/09 12:43:18;;;;;;;17.55;7.80;;;;;;;;;;5064335;28;20147;-87
2021/10/09 12:45:47;;;;;;;12.85;7.38;;;;;;;;;;5072179;28;20040;-87
2021/10/09 12:48:19;;;;;;;16.80;7.65;;;;;;;;;;5065966;28;20131;-86
2021/10/09 12:50:46;;;;;;;15.23;7.25;;;;;;;;;;5066902;28;20452;-84
2021/10/09 12:53:13;;;;;;;17.45;8.13;;;;;;;;;;5070974;28;20074;-87
2021/10/09 12:55:50;;;;;;;15.73;7.50;;;;;;;;;;5082239;28;20080;-85
2021/10/09 12:58:28;;;;;;;19.02;7.57;;;;;;;;;;5069613;28;20037;-85
2021/10/09 13:01:00;;;;;;;20.38;7.53;;;;;;;;;;5068592;28;20056;-85
2021/10/09 13:03:31;;;;;;;19.63;7.43;;;;;;;;;;5067308;28;20426;-85
2021/10/09 13:05:58;;;;;;;14.13;7.35;;;;;;;;;;5070720;28;20044;-85
2021/10/09 13:08:28;;;;;;;15.45;7.05;;;;;;;;;;5071620;28;20147;-85
2021/10/09 13:10:58;;;;;;;19.25;7.75;;;;;;;;;;5067302;28;20115;-86
2021/10/09 13:13:25;;;;;;;14.52;7.63;;;;;;;;;;5066319;28;20393;-86
2021/10/09 13:16:04;;;;;;;16.02;7.60;;;;;;;;;;5068602;28;20151;-85
2021/10/09 13:18:37;;;;;;;14.55;7.03;;;;;;;;;;5059927;28;20041;-86
2021/10/09 13:21:18;;;;;;;13.27;6.93;;;;;;;;;;5070019;28;20080;-87
2021/10/09 13:24:03;;;;;;;19.83;6.90;;;;;;;;;;5062974;28;20205;-87
2021/10/09 13:26:31;;;;;;;12.95;6.95;;;;;;;;;;5066560;28;20268;-84
2021/10/09 13:28:59;;;;;;;14.80;6.32;;;;;;;;;;5064621;28;20048;-86
2021/10/09 13:31:28;;;;;;;12.95;6.43;;;;;;;;;;5069892;28;20116;-85
2021/10/09 13:33:58;;;;;;;12.70;6.85;;;;;;;;;;5069186;28;20044;-86
2021/10/09 13:36:27;;;;;;;12.57;6.20;;;;;;;;;;5066560;28;20093;-86
2021/10/09 13:38:58;;;;;;;11.52;5.30;;;;;;;;;;5069340;28;20078;-86
2021/10/09 13:41:26;;;;;;;12.05;4.45;;;;;;;;;;5071378;28;20074;-86
2021/10/09 13:44:12;;;;;;;10.52;5.00;;;;;;;;;;5070743;28;20052;-86
2021/10/09 13:46:43;;;;;;;10.60;4.55;;;;;;;;;;5072618;28;20040;-86
2021/10/09 13:49:13;;;;;;;9.88;4.03;;;;;;;;;;5081148;28;20269;-85
2021/10/09 13:51:40;;;;;;;6.53;3.85;;;;;;;;;;5080622;28;20181;-86
2021/10/09 13:54:07;;;;;;;11.45;3.35;;;;;;;;;;5065955;28;20063;-86
2021/10/09 13:56:34;;;;;;;9.07;3.88;;;;;;;;;;5077042;28;20210;-85
2021/10/09 13:59:04;;;;;;;10.02;4.30;;;;;;;;;;5082423;28;20039;-86
2021/10/09 14:01:45;;;;;;;6.72;3.67;;;;;;;;;;5078539;28;20120;-85
2021/10/09 14:04:15;;;;;;;9.68;4.20;;;;;;;;;;5055957;28;20326;-86
2021/10/09 14:06:43;;;;;;;8.32;4.28;;;;;;;;;;5048344;28;20317;-86
2021/10/09 14:09:12;;;;;;;8.10;3.95;;;;;;;;;;5065577;28;20406;-86
2021/10/09 14:11:42;;;;;;;11.20;4.40;;;;;;;;;;5065229;28;20310;-85
2021/10/09 14:14:27;;;;;;;7.32;3.85;;;;;;;;;;5062792;28;20080;-86
2021/10/09 14:16:55;;;;;;;6.93;3.85;;;;;;;;;;5065553;28;20207;-85
2021/10/09 14:19:22;;;;;;;8.35;4.10;;;;;;;;;;5061414;28;20392;-85
2021/10/09 14:21:51;;;;;;;14.07;5.07;;;;;;;;;;5065366;28;20086;-86
2021/10/09 14:24:20;;;;;;;14.35;4.38;;;;;;;;;;5059626;28;20052;-86
2021/10/09 14:26:50;;;;;;;10.23;4.60;;;;;;;;;;5065220;28;20276;-86
2021/10/09 14:29:21;;;;;;;11.40;4.53;;;;;;;;;;5066210;28;20110;-85
2021/10/09 14:31:51;;;;;;;7.63;4.40;;;;;;;;;;5070588;28;20052;-85
2021/10/09 14:34:20;;;;;;;9.60;4.68;;;;;;;;;;5067923;28;20272;-86
2021/10/09 14:36:47;;;;;;;11.38;4.75;;;;;;;;;;5071880;28;20421;-85
2021/10/09 14:39:17;;;;;;;13.95;4.03;;;;;;;;;;5068521;28;20044;-86
2021/10/09 14:41:44;;;;;;;7.72;4.32;;;;;;;;;;5066073;28;20040;-86
2021/10/09 14:44:15;;;;;;;11.15;4.25;;;;;;;;;;5067945;28;20048;-86
2021/10/09 14:49:41;;;;;;;12.32;3.70;;;;;;;;;;5055629;28;20098;-85
2021/10/09 14:55:11;;;;;;;10.50;3.80;;;;;;;;;;5065986;28;20451;-85
2021/10/09 15:18:12;;;;;;;11.10;4.80;;;;;;;;;;5066374;28;20099;-85
2021/10/09 15:20:51;;;;;;;7.03;3.85;;;;;;;;;;5083041;28;20036;-86
2021/10/09 15:23:23;;;;;;;10.25;4.15;;;;;;;;;;5092757;28;20068;-86
2021/10/09 15:26:17;;;;;;;10.45;4.50;;;;;;;;;;5011488;28;20338;-86
2021/10/09 15:29:03;;;;;;;11.48;4.97;;;;;;;;;;5009083;28;20658;-86
2021/10/09 15:31:40;;;;;;;10.35;4.05;;;;;;;;;;4993400;28;20046;-85
2021/10/09 15:34:23;;;;;;;9.57;4.28;;;;;;;;;;5007406;28;20450;-86
2021/10/09 15:36:52;;;;;;;11.70;4.05;;;;;;;;;;4992358;28;20064;-86
2021/10/09 15:39:26;;;;;;;10.50;4.43;;;;;;;;;;4982527;28;20113;-87
2021/10/09 15:42:03;;;;;;;10.98;4.18;;;;;;;;;;4975294;28;20053;-85
2021/10/09 15:44:34;;;;;;;13.80;3.53;;;;;;;;;;5011974;28;20061;-86
2021/10/09 15:47:21;;;;;;;12.55;4.80;;;;;;;;;;4990057;28;20144;-87
2021/10/09 15:49:50;;;;;;;12.00;4.50;;;;;;;;;;5007867;28;20174;-86
2021/10/09 15:52:25;;;;;;;8.88;4.15;;;;;;;;;;4990041;28;20132;-86
2021/10/09 15:55:05;;;;;;;8.77;3.75;;;;;;;;;;5008558;28;20298;-86
2021/10/09 15:57:34;;;;;;;11.88;4.60;;;;;;;;;;5045037;28;20052;-86
2021/10/09 16:00:01;;;;;;;12.48;3.70;;;;;;;;;;5070563;28;20292;-86
2021/10/09 16:02:32;;;;;;;9.88;3.88;;;;;;;;;;5070546;28;20052;-86
2021/10/09 16:05:14;;;;;;;16.55;4.50;;;;;;;;;;5073147;28;20045;-86
2021/10/09 16:07:53;;;;;;;9.55;3.88;;;;;;;;;;5071102;28;20056;-86
2021/10/09 16:10:40;;;;;;;7.57;4.30;;;;;;;;;;5050135;28;20278;-86
2021/10/09 16:13:22;;;;;;;12.18;4.28;;;;;;;;;;5052645;28;20073;-86
2021/10/09 16:15:55;;;;;;;8.55;3.80;;;;;;;;;;5072327;28;20303;-87
2021/10/09 16:18:22;;;;;;;7.95;3.88;;;;;;;;;;5066507;28;20049;-84
2021/10/09 16:21:03;;;;;;;7.65;3.85;;;;;;;;;;5051265;28;20052;-87
2021/10/09 16:26:26;;;;;;;8.77;4.05;;;;;;;;;;5048870;28;20048;-85
2021/10/09 16:29:17;;;;;;;184.18;107.22;;;;;;;;;;5054410;28;20516;-86
2021/10/09 16:31:57;;;;;;;18.52;9.23;;;;;;;;;;5067816;28;20596;-87
2021/10/09 16:34:42;;;;;;;12.90;5.30;;;;;;;;;;5069859;28;20431;-86
2021/10/09 16:37:28;;;;;;;14.48;5.00;;;;;;;;;;5055439;28;20044;-87
2021/10/09 16:40:03;;;;;;;11.40;4.63;;;;;;;;;;5051510;28;20042;-87
2021/10/09 16:42:50;;;;;;;;;;;;;;;;;;;;;
2021/10/09 16:45:26;;;;;;;17.63;5.68;;;;;;;;;;5051599;28;20397;-86
2021/10/09 16:47:57;;;;;;;11.07;5.97;;;;;;;;;;5049732;28;20161;-86
2021/10/09 16:50:39;;;;;;;14.93;5.28;;;;;;;;;;5048092;28;20057;-86
2021/10/09 16:53:17;;;;;;;11.30;5.60;;;;;;;;;;5059052;28;20041;-87
2021/10/09 16:56:18;;;;;;;13.75;5.47;;;;;;;;;;5056869;28;20579;-86
2021/10/09 16:58:55;;;;;;;11.82;5.78;;;;;;;;;;5070175;28;20189;-86
2021/10/09 17:01:37;;;;;;;12.13;5.25;;;;;;;;;;5079397;28;20081;-86
2021/10/09 17:04:11;;;;;;;9.48;4.85;;;;;;;;;;5083946;28;20229;-86
2021/10/09 17:06:48;;;;;;;16.25;5.47;;;;;;;;;;5076748;28;20056;-86
2021/10/09 17:09:23;;;;;;;14.88;5.40;;;;;;;;;;5070808;28;20060;-87
2021/10/09 17:12:01;;;;;;;16.33;5.45;;;;;;;;;;5079030;28;20039;-86
2021/10/09 17:14:33;;;;;;;14.38;5.10;;;;;;;;;;5086496;28;20031;-86
2021/10/09 17:17:18;;;;;;;18.80;7.07;;;;;;;;;;5078173;28;20098;-86
2021/10/09 17:19:55;;;;;;;14.60;6.35;;;;;;;;;;5074057;28;20159;-86
2021/10/09 17:22:37;;;;;;;11.20;5.75;;;;;;;;;;5090500;28;20132;-86
2021/10/09 17:25:14;;;;;;;18.05;6.38;;;;;;;;;;5076965;28;20074;-86
2021/10/09 17:27:49;;;;;;;18.65;6.03;;;;;;;;;;5102545;28;20061;-86
2021/10/09 17:30:32;;;;;;;13.57;5.50;;;;;;;;;;5073413;28;20513;-86
2021/10/09 17:33:23;;;;;;;10.35;5.43;;;;;;;;;;5089984;28;20086;-86
2021/10/09 17:36:05;;;;;;;12.95;5.70;;;;;;;;;;5057623;28;20040;-86
2021/10/09 17:38:32;;;;;;;15.85;6.13;;;;;;;;;;5069995;28;20213;-86
2021/10/09 17:44:31;;;;;;;15.55;6.38;;;;;;;;;;5041617;28;20044;-86